createdAt,value
2022-09-03T00:02:45.537Z,51315.03
2022-09-03T00:05:34.552Z,51311.06
2022-09-03T00:08:30.917Z,51313.03
2022-09-03T00:11:14.790Z,51299.13
2022-09-03T00:14:13.382Z,51301.09
2022-09-03T00:16:58.111Z,51321.00
2022-09-03T00:19:33.031Z,51332.91
2022-09-03T00:22:15.673Z,51301.09
2022-09-03T00:24:44.531Z,51307.06
2022-09-03T00:27:28.040Z,51311.06
2022-09-03T00:30:14.799Z,51297.13
2022-09-03T00:33:10.807Z,51295.16
2022-09-03T00:35:51.896Z,51313.03
2022-09-03T00:38:19.048Z,51321.00
2022-09-03T00:41:17.228Z,51324.97
2022-09-03T00:43:54.147Z,51281.22
2022-09-03T00:46:37.087Z,51301.09
2022-09-03T00:49:26.643Z,51289.19
2022-09-03T00:51:56.463Z,51301.09
2022-09-03T00:54:52.739Z,51277.25
2022-09-03T00:57:48.506Z,51285.19
2022-09-03T01:00:19.707Z,51305.09
2022-09-03T01:02:49.712Z,51297.13
2022-09-03T01:06:07.805Z,51291.16
2022-09-03T01:09:14.641Z,51305.09
2022-09-03T01:12:13.520Z,51309.06
2022-09-03T01:15:06.260Z,51265.31
2022-09-03T01:18:09.532Z,51297.13
2022-09-03T01:21:27.069Z,51277.25
2022-09-03T01:24:18.053Z,51277.25
2022-09-03T01:27:20.108Z,51289.19
2022-09-03T01:30:23.037Z,51281.22
2022-09-03T01:33:40.257Z,51275.25
2022-09-03T01:36:22.998Z,51265.31
2022-09-03T01:39:06.945Z,51281.22
2022-09-03T01:42:10.857Z,51299.13
2022-09-03T01:45:13.440Z,51279.25
2022-09-03T01:47:59.122Z,51287.19
2022-09-03T01:50:50.197Z,51255.38
2022-09-03T01:54:03.535Z,51301.09
2022-09-03T01:56:48.680Z,51273.28
2022-09-03T01:59:21.272Z,51287.19
2022-09-03T02:02:20.144Z,51271.28
2022-09-03T02:05:09.288Z,51279.25
2022-09-03T02:07:53.013Z,51273.28
2022-09-03T02:10:46.037Z,51285.19
2022-09-03T02:13:22.734Z,51305.09
2022-09-03T02:15:52.888Z,51277.25
2022-09-03T02:18:39.231Z,51253.41
2022-09-03T02:21:07.600Z,51273.28
2022-09-03T02:23:34.937Z,51317.00
2022-09-03T02:26:03.821Z,51271.28
2022-09-03T02:28:33.449Z,51257.38
2022-09-03T02:31:00.852Z,51277.25
2022-09-03T02:33:28.716Z,51269.31
2022-09-03T02:35:55.978Z,51317.00
2022-09-03T02:38:26.558Z,51287.19
2022-09-03T02:40:54.649Z,51275.25
2022-09-03T02:43:38.724Z,51285.19
2022-09-03T02:46:13.074Z,51285.19
2022-09-03T02:48:40.290Z,51275.25
2022-09-03T02:51:10.211Z,51263.34
2022-09-03T02:53:42.887Z,51249.41
2022-09-03T02:56:10.219Z,51291.16
2022-09-03T02:58:37.484Z,51265.31
2022-09-03T03:01:05.579Z,51267.31
2022-09-03T03:03:33.197Z,51255.38
2022-09-03T03:06:04.616Z,51241.47
2022-09-03T03:08:34.074Z,51247.44
2022-09-03T03:11:02.111Z,51265.31
2022-09-03T03:13:31.912Z,51253.41
2022-09-03T03:16:03.186Z,51271.28
2022-09-03T03:18:30.543Z,51283.22
2022-09-03T03:20:57.974Z,51257.38
2022-09-03T03:23:25.044Z,51249.41
2022-09-03T03:25:52.208Z,51269.31
2022-09-03T03:28:20.691Z,51241.47
2022-09-03T03:30:49.063Z,51257.38
2022-09-03T03:33:16.351Z,51261.34
2022-09-03T03:35:43.721Z,51241.47
2022-09-03T03:38:10.930Z,51249.41
2022-09-03T03:40:39.859Z,51261.34
2022-09-03T03:43:06.967Z,51265.31
2022-09-03T03:45:34.175Z,51261.34
2022-09-03T03:48:01.417Z,51233.50
2022-09-03T03:50:28.491Z,51265.31
2022-09-03T03:52:56.261Z,51247.44
2022-09-03T03:55:23.326Z,51243.47
2022-09-03T03:57:54.220Z,51233.50
2022-09-03T04:00:21.470Z,51267.31
2022-09-03T04:02:51.954Z,51253.41
2022-09-03T04:05:22.977Z,51273.28
2022-09-03T04:07:50.399Z,51251.41
2022-09-03T04:10:17.491Z,51237.50
2022-09-03T04:12:44.621Z,51225.56
2022-09-03T04:15:11.865Z,51249.41
2022-09-03T04:17:39.841Z,51261.34
2022-09-03T04:20:07.481Z,51223.56
2022-09-03T04:22:34.609Z,51235.50
2022-09-03T04:25:01.710Z,51245.44
2022-09-03T04:27:28.864Z,51241.47
2022-09-03T04:29:55.968Z,51237.50
2022-09-03T04:32:42.324Z,51259.34
2022-09-03T04:35:09.951Z,51267.31
2022-09-03T04:37:37.153Z,51233.50
2022-09-03T04:40:05.464Z,51235.50
2022-09-03T04:42:32.665Z,51235.50
2022-09-03T04:45:01.250Z,51233.50
2022-09-03T04:47:28.524Z,51257.38
2022-09-03T04:49:55.839Z,51243.47
2022-09-03T04:52:22.998Z,51239.47
2022-09-03T04:54:50.551Z,51245.44
2022-09-03T04:57:18.032Z,51259.34
2022-09-03T04:59:45.352Z,51253.41
2022-09-03T05:02:12.984Z,51267.31
2022-09-03T05:04:40.117Z,51253.41
2022-09-03T05:07:07.519Z,51249.41
2022-09-03T05:09:34.998Z,51251.41
2022-09-03T05:12:02.204Z,51273.28
2022-09-03T05:14:29.666Z,51257.38
2022-09-03T05:16:56.852Z,51255.38
2022-09-03T05:19:24.057Z,51257.38
2022-09-03T05:21:51.200Z,51259.34
2022-09-03T05:24:18.762Z,51273.28
2022-09-03T05:26:45.869Z,51269.31
2022-09-03T05:29:13.476Z,51291.16
2022-09-03T05:31:40.703Z,51251.41
2022-09-03T05:34:10.134Z,51241.47
2022-09-03T05:36:41.432Z,51263.34
2022-09-03T05:39:08.523Z,51261.34
2022-09-03T05:41:35.670Z,51263.34
2022-09-03T05:44:04.102Z,51263.34
2022-09-03T05:46:34.155Z,51269.31
2022-09-03T05:49:04.329Z,51251.41
2022-09-03T05:51:33.006Z,51275.25
2022-09-03T05:54:00.552Z,51281.22
2022-09-03T05:56:30.168Z,51255.38
2022-09-03T05:59:01.818Z,51293.16
2022-09-03T06:01:39.619Z,51279.25
2022-09-03T06:04:13.656Z,51295.16
2022-09-03T06:06:46.971Z,51295.16
2022-09-03T06:09:18.383Z,51299.13
2022-09-03T06:11:47.478Z,51295.16
2022-09-03T06:14:16.476Z,51303.09
2022-09-03T06:16:48.945Z,51307.06
2022-09-03T06:19:17.130Z,51332.91
2022-09-03T06:21:46.685Z,51297.13
2022-09-03T06:24:20.369Z,51303.09
2022-09-03T06:26:48.365Z,51330.94
2022-09-03T06:29:16.538Z,51301.09
2022-09-03T06:31:43.854Z,51301.09
2022-09-03T06:34:12.453Z,51319.00
2022-09-03T06:36:41.401Z,51332.91
2022-09-03T06:39:09.065Z,51324.97
2022-09-03T06:41:36.261Z,51330.94
2022-09-03T06:44:06.917Z,51321.00
2022-09-03T06:46:36.405Z,51332.91
2022-09-03T06:49:03.637Z,51319.00
2022-09-03T06:51:33.229Z,51328.94
2022-09-03T06:54:09.124Z,51344.84
2022-09-03T06:56:40.483Z,51326.94
2022-09-03T06:59:13.797Z,51384.59
2022-09-03T07:01:45.497Z,51348.81
2022-09-03T07:04:19.192Z,51366.72
2022-09-03T07:06:48.069Z,51328.94
2022-09-03T07:09:18.067Z,51332.91
2022-09-03T07:11:49.385Z,51346.84
2022-09-03T07:14:20.211Z,51360.75
2022-09-03T07:16:49.749Z,51336.91
2022-09-03T07:19:17.586Z,51344.84
2022-09-03T07:21:49.554Z,51346.84
2022-09-03T07:24:19.642Z,51352.78
2022-09-03T07:26:48.898Z,51356.78
2022-09-03T07:29:20.182Z,51400.50
2022-09-03T07:31:51.636Z,51374.66
2022-09-03T07:34:22.041Z,51382.63
2022-09-03T07:36:51.468Z,51376.66
2022-09-03T07:39:19.412Z,51392.56
2022-09-03T07:41:47.508Z,51370.69
2022-09-03T07:44:19.723Z,51376.66
2022-09-03T07:46:51.455Z,51390.56
2022-09-03T07:49:21.212Z,51388.59
2022-09-03T07:51:52.300Z,51374.66
2022-09-03T07:54:20.394Z,51380.63
2022-09-03T07:56:48.188Z,51396.53
2022-09-03T07:59:15.305Z,51368.69
2022-09-03T08:01:42.493Z,51398.53
2022-09-03T08:04:11.358Z,51412.44
2022-09-03T08:06:39.186Z,51412.44
2022-09-03T08:09:11.438Z,51402.50
2022-09-03T08:11:46.504Z,51404.50
2022-09-03T08:14:14.905Z,51398.53
2022-09-03T08:16:47.999Z,51408.47
2022-09-03T08:19:18.494Z,51396.53
2022-09-03T08:21:45.995Z,51430.34
2022-09-03T08:24:15.923Z,51422.38
2022-09-03T08:26:49.066Z,51416.41
2022-09-03T08:29:18.787Z,51424.38
2022-09-03T08:31:46.018Z,51428.34
2022-09-03T08:34:14.837Z,51418.41
2022-09-03T08:36:42.484Z,51414.44
2022-09-03T08:39:11.312Z,51420.41
2022-09-03T08:41:53.801Z,51412.44
2022-09-03T08:44:50.391Z,51430.34
2022-09-03T08:47:29.480Z,51448.22
2022-09-03T08:50:04.686Z,51434.31
2022-09-03T08:52:40.870Z,51436.28
2022-09-03T08:55:19.923Z,51412.44
2022-09-03T08:58:14.145Z,51444.25
2022-09-03T09:01:01.637Z,51446.25
2022-09-03T09:03:43.530Z,51442.25
2022-09-03T09:06:48.778Z,51444.25
2022-09-03T09:09:57.742Z,51462.16
2022-09-03T09:12:55.921Z,51444.25
2022-09-03T09:15:30.397Z,51456.19
2022-09-03T09:18:11.159Z,51484.00
2022-09-03T09:20:49.989Z,51454.19
2022-09-03T09:23:42.919Z,51456.19
2022-09-03T09:26:16.112Z,51452.19
2022-09-03T09:28:46.761Z,51442.25
2022-09-03T09:31:18.818Z,51482.03
2022-09-03T09:33:46.588Z,51472.09
2022-09-03T09:36:19.387Z,51495.94
2022-09-03T09:38:48.895Z,51497.94
2022-09-03T09:41:27.529Z,51472.09
2022-09-03T09:44:03.193Z,51474.06
2022-09-03T09:46:38.844Z,51484.00
2022-09-03T09:49:32.573Z,51468.09
2022-09-03T09:52:14.622Z,51472.09
2022-09-03T09:54:45.921Z,51495.94
2022-09-03T09:57:25.309Z,51491.97
2022-09-03T10:00:18.993Z,51482.03
2022-09-03T10:02:54.368Z,51456.19
2022-09-03T10:05:33.671Z,51480.03
2022-09-03T10:08:04.828Z,51484.00
2022-09-03T10:10:38.029Z,51503.91
2022-09-03T10:13:19.824Z,51462.16
2022-09-03T10:16:01.315Z,51476.06
2022-09-03T10:18:45.832Z,51489.97
2022-09-03T10:21:22.624Z,51480.03
2022-09-03T10:24:18.734Z,51476.06
2022-09-03T10:26:46.393Z,51474.06
2022-09-03T10:29:22.237Z,51501.91
2022-09-03T10:32:36.862Z,51503.91
2022-09-03T10:35:29.781Z,51497.94
2022-09-03T10:38:23.009Z,51486.00
2022-09-03T10:41:51.524Z,51486.00
2022-09-03T10:44:43.716Z,51474.06
2022-09-03T10:47:38.470Z,51495.94
2022-09-03T10:50:29.230Z,51488.00
2022-09-03T10:53:11.802Z,51505.88
2022-09-03T10:55:55.761Z,51523.78
2022-09-03T10:58:40.588Z,51519.81
2022-09-03T11:01:59.911Z,51519.81
2022-09-03T11:04:58.543Z,51539.69
2022-09-03T11:07:37.831Z,51565.53
2022-09-03T11:10:30.653Z,51531.72
2022-09-03T11:13:09.565Z,51555.59
2022-09-03T11:15:50.311Z,51549.63
2022-09-03T11:18:35.311Z,51561.56
2022-09-03T11:21:12.018Z,51547.63
2022-09-03T11:23:47.093Z,51547.63
2022-09-03T11:26:19.148Z,51585.41
2022-09-03T11:28:58.174Z,51575.47
2022-09-03T11:32:08.824Z,51587.41
2022-09-03T11:35:16.708Z,51643.06
2022-09-03T11:38:31.224Z,51637.09
2022-09-03T11:41:00.572Z,51722.59
2022-09-03T11:43:33.621Z,51766.34
2022-09-03T11:46:14.338Z,51951.25
2022-09-03T11:49:11.828Z,52207.78
2022-09-03T11:51:44.162Z,52456.34
2022-09-03T11:54:14.622Z,52563.75
2022-09-03T11:56:43.019Z,52669.16
2022-09-03T11:59:16.243Z,52923.75
2022-09-03T12:01:59.437Z,52905.84
2022-09-03T12:05:04.655Z,52943.63
2022-09-03T12:07:54.917Z,53047.06
2022-09-03T12:10:46.934Z,52909.81
2022-09-03T12:13:43.804Z,52724.84
2022-09-03T12:16:48.680Z,52593.59
2022-09-03T12:19:46.166Z,52826.28
2022-09-03T12:22:16.123Z,52657.22
2022-09-03T12:24:45.049Z,52820.31
2022-09-03T12:27:27.142Z,52774.56
2022-09-03T12:30:01.674Z,52527.94
2022-09-03T12:32:41.356Z,52625.41
2022-09-03T12:38:12.844Z,53230.06
2022-09-03T12:43:39.601Z,53444.91
2022-09-03T12:46:15.681Z,53639.84
2022-09-03T12:52:04.585Z,53956.19
2022-09-03T12:54:40.822Z,53820.91
2022-09-03T12:57:09.761Z,53968.13
2022-09-03T12:59:39.759Z,53898.47
2022-09-03T13:02:26.516Z,53695.56
2022-09-03T13:04:54.820Z,53635.88
2022-09-03T13:07:38.250Z,53743.31
2022-09-03T13:10:34.880Z,53874.59
2022-09-03T13:13:18.200Z,54011.88
2022-09-03T13:16:09.377Z,54196.94
2022-09-03T13:19:11.620Z,54133.25
2022-09-03T13:22:14.968Z,53803.00
2022-09-03T13:25:36.089Z,53337.47
2022-09-03T13:28:22.567Z,53526.47
2022-09-03T13:31:27.187Z,53649.78
2022-09-03T13:34:11.999Z,53430.97
2022-09-03T13:36:51.154Z,53333.50
2022-09-03T13:39:33.554Z,53283.75
2022-09-03T13:42:18.246Z,53508.56
2022-09-03T13:44:57.347Z,53771.16
2022-09-03T13:47:30.386Z,53840.78
2022-09-03T13:50:22.255Z,53677.66
2022-09-03T13:53:01.164Z,52991.38
2022-09-03T13:55:49.316Z,52561.75
2022-09-03T13:58:35.453Z,52919.75
2022-09-03T14:01:37.192Z,53385.22
2022-09-03T14:04:15.104Z,53795.03
2022-09-03T14:07:03.376Z,53892.50
2022-09-03T14:09:59.196Z,53978.06
2022-09-03T14:12:47.545Z,53956.19
2022-09-03T14:15:29.480Z,53932.31
2022-09-03T14:18:34.129Z,53725.41
2022-09-03T14:21:28.561Z,53631.91
2022-09-03T14:24:24.468Z,53735.34
2022-09-03T14:26:58.298Z,54029.78
2022-09-03T14:29:32.659Z,54159.13
2022-09-03T14:32:34.822Z,54153.16
2022-09-03T14:35:39.005Z,53968.13
2022-09-03T14:38:56.103Z,54005.91
2022-09-03T14:42:04.185Z,53882.56
2022-09-03T14:44:55.977Z,53958.16
2022-09-03T14:47:56.112Z,53988.00
2022-09-03T14:50:56.546Z,53890.53
2022-09-03T14:53:38.585Z,53892.50
2022-09-03T14:56:33.742Z,54173.06
2022-09-03T14:59:36.162Z,54095.47
2022-09-03T15:02:34.314Z,53978.06
2022-09-03T15:05:19.401Z,53707.50
2022-09-03T15:07:56.369Z,53661.72
2022-09-03T15:10:47.875Z,53818.91
2022-09-03T15:13:22.144Z,53962.16
2022-09-03T15:16:14.895Z,54007.91
2022-09-03T15:19:12.090Z,53876.59
2022-09-03T15:22:01.383Z,53906.44
2022-09-03T15:24:49.437Z,53727.38
2022-09-03T15:27:47.760Z,53283.75
2022-09-03T15:30:21.028Z,52925.72
2022-09-03T15:33:12.756Z,52786.50
2022-09-03T15:36:39.079Z,52541.88
2022-09-03T15:39:32.840Z,52404.66
2022-09-03T15:42:19.116Z,52303.22
2022-09-03T15:44:54.922Z,52191.88
2022-09-03T15:47:51.489Z,52082.50
2022-09-03T15:50:30.469Z,51979.09
2022-09-03T15:53:26.069Z,52046.72
2022-09-03T15:56:20.653Z,52064.59
2022-09-03T15:59:11.326Z,52020.84
2022-09-03T16:01:54.603Z,51895.59
2022-09-03T16:04:55.870Z,52094.44
2022-09-03T16:07:38.346Z,52160.06
2022-09-03T16:10:24.562Z,52096.41
2022-09-03T16:13:53.642Z,52052.66
2022-09-03T16:17:03.313Z,52215.72
2022-09-03T16:19:59.069Z,52156.06
2022-09-03T16:22:43.155Z,52251.53
2022-09-03T16:25:45.612Z,52156.06
2022-09-03T16:28:30.360Z,52259.47
2022-09-03T16:31:48.415Z,52217.72
2022-09-03T16:34:34.435Z,52064.59
2022-09-03T16:37:19.650Z,51961.19
2022-09-03T16:40:25.913Z,51897.56
2022-09-03T16:43:29.937Z,51810.09
2022-09-03T16:46:07.310Z,51772.31
2022-09-03T16:49:00.118Z,51754.41
2022-09-03T16:51:54.407Z,51696.75
2022-09-03T16:54:57.459Z,51706.69
2022-09-03T16:57:59.300Z,51684.81
2022-09-03T17:00:49.118Z,51660.97
2022-09-03T17:03:45.758Z,51611.25
2022-09-03T17:07:00.489Z,51637.09
2022-09-03T17:09:56.077Z,51599.31
2022-09-03T17:12:43.695Z,51585.41
2022-09-03T17:15:38.313Z,51557.56
2022-09-03T17:18:20.924Z,51587.41
2022-09-03T17:21:21.175Z,51573.47
2022-09-03T17:24:21.681Z,51541.66
2022-09-03T17:27:13.494Z,51545.66
2022-09-03T17:30:04.193Z,51525.75
2022-09-03T17:33:27.014Z,51513.84
2022-09-03T17:36:21.386Z,51515.81
2022-09-03T17:39:33.911Z,51480.03
2022-09-03T17:42:06.579Z,51519.81
2022-09-03T17:45:15.611Z,51489.97
2022-09-03T17:48:45.172Z,51458.16
2022-09-03T17:51:36.037Z,51470.09
2022-09-03T17:54:21.320Z,51418.41
2022-09-03T17:57:13.231Z,51450.22
2022-09-03T18:00:01.124Z,51442.25
2022-09-03T18:03:05.993Z,51448.22
2022-09-03T18:06:04.668Z,51422.38
2022-09-03T18:09:01.858Z,51418.41
2022-09-03T18:11:38.018Z,51418.41
2022-09-03T18:14:21.331Z,51418.41
2022-09-03T18:17:06.675Z,51432.31
2022-09-03T18:20:04.867Z,51402.50
2022-09-03T18:23:18.827Z,51424.38
2022-09-03T18:26:09.791Z,51414.44
2022-09-03T18:29:07.883Z,51400.50
2022-09-03T18:31:53.902Z,51404.50
2022-09-03T18:34:49.643Z,51384.59
2022-09-03T18:37:42.074Z,51374.66
2022-09-03T18:40:38.326Z,51392.56
2022-09-03T18:43:46.180Z,51380.63
2022-09-03T18:50:45.293Z,51390.56
2022-09-03T18:53:38.585Z,51360.75
2022-09-03T18:56:48.113Z,51360.75
2022-09-03T19:00:28.100Z,51376.66
2022-09-03T19:04:18.784Z,51350.81
2022-09-03T19:07:18.610Z,51362.75
2022-09-03T19:10:14.837Z,51368.69
2022-09-03T19:13:20.177Z,51360.75
2022-09-03T19:16:27.919Z,51374.66
2022-09-03T19:20:04.975Z,51356.78
2022-09-03T19:22:58.811Z,51372.69
2022-09-03T19:25:47.700Z,51380.63
2022-09-03T19:28:44.934Z,51368.69
2022-09-03T19:31:49.722Z,51364.72
2022-09-03T19:35:06.554Z,51364.72
2022-09-03T19:38:10.635Z,51372.69
2022-09-03T19:41:19.201Z,51356.78
2022-09-03T19:44:34.030Z,51354.78
2022-09-03T19:47:22.942Z,51362.75
2022-09-03T19:50:43.867Z,51356.78
2022-09-03T19:53:37.983Z,51360.75
2022-09-03T19:56:46.853Z,51364.72
2022-09-03T19:59:39.351Z,51354.78
2022-09-03T20:02:25.235Z,51350.81
2022-09-03T20:05:18.042Z,51360.75
2022-09-03T20:08:08.584Z,51380.63
2022-09-03T20:10:37.063Z,51364.72
2022-09-03T20:13:18.684Z,51372.69
2022-09-03T20:16:02.571Z,51350.81
2022-09-03T20:19:04.301Z,51346.84
2022-09-03T20:21:46.165Z,51340.88
2022-09-03T20:25:02.500Z,51338.88
2022-09-03T20:27:57.429Z,51332.91
2022-09-03T20:30:51.151Z,51364.72
2022-09-03T20:33:46.675Z,51332.91
2022-09-03T20:36:28.525Z,51346.84
2022-09-03T20:39:43.006Z,51340.88
2022-09-03T20:42:45.526Z,51340.88
2022-09-03T20:46:06.132Z,51330.94
2022-09-03T20:49:13.126Z,51348.81
2022-09-03T20:51:50.062Z,51328.94
2022-09-03T20:54:33.774Z,51370.69
2022-09-03T20:57:34.483Z,51328.94
2022-09-03T21:00:14.104Z,51354.78
2022-09-03T21:03:09.643Z,51321.00
2022-09-03T21:06:18.242Z,51348.81
2022-09-03T21:09:28.860Z,51340.88
2022-09-03T21:12:25.463Z,51346.84
2022-09-03T21:15:19.506Z,51350.81
2022-09-03T21:18:09.052Z,51319.00
2022-09-03T21:21:09.646Z,51319.00
2022-09-03T21:23:48.039Z,51340.88
2022-09-03T21:26:30.111Z,51317.00
2022-09-03T21:29:21.539Z,51350.81
2022-09-03T21:32:03.226Z,51315.03
2022-09-03T21:34:39.323Z,51328.94
2022-09-03T21:37:11.956Z,51313.03
2022-09-03T21:39:47.611Z,51344.84
2022-09-03T21:42:37.996Z,51311.06
2022-09-03T21:45:29.762Z,51299.13
2022-09-03T21:48:06.681Z,51334.91
2022-09-03T21:50:56.147Z,51303.09
2022-09-03T21:53:46.169Z,51336.91
2022-09-03T21:56:22.039Z,51324.97
2022-09-03T21:58:51.914Z,51346.84
2022-09-03T22:01:46.077Z,51324.97
2022-09-03T22:04:13.259Z,51352.78
2022-09-03T22:07:23.662Z,51321.00
2022-09-03T22:10:06.678Z,51311.06
2022-09-03T22:12:52.271Z,51334.91
2022-09-03T22:15:21.414Z,51334.91
2022-09-03T22:18:24.113Z,51313.03
2022-09-03T22:21:47.157Z,51354.78
2022-09-03T22:24:36.456Z,51328.94
2022-09-03T22:27:15.641Z,51328.94
2022-09-03T22:30:11.646Z,51356.78
2022-09-03T22:33:03.246Z,51313.03
2022-09-03T22:36:01.206Z,51303.09
2022-09-03T22:39:15.878Z,51301.09
2022-09-03T22:42:10.934Z,51321.00
2022-09-03T22:45:06.635Z,51317.00
2022-09-03T22:48:26.362Z,51303.09
2022-09-03T22:51:02.643Z,51291.16
2022-09-03T22:53:44.881Z,51330.94
2022-09-03T22:56:20.914Z,51319.00
2022-09-03T22:59:05.905Z,51313.03
2022-09-03T23:01:45.185Z,51285.19
2022-09-03T23:04:37.242Z,51305.09
2022-09-03T23:07:22.912Z,51303.09
2022-09-03T23:10:23.013Z,51319.00
2022-09-03T23:13:04.925Z,51324.97
2022-09-03T23:15:34.378Z,51321.00
2022-09-03T23:18:10.258Z,51334.91
2022-09-03T23:20:43.499Z,51313.03
2022-09-03T23:23:22.817Z,51307.06
2022-09-03T23:25:55.997Z,51293.16
2022-09-03T23:28:35.501Z,51317.00
2022-09-03T23:31:24.806Z,51293.16
2022-09-03T23:33:57.327Z,51336.91
2022-09-03T23:40:16.091Z,51297.13
2022-09-03T23:43:11.033Z,51313.03
2022-09-03T23:46:09.743Z,51297.13
2022-09-03T23:49:26.084Z,51326.94
2022-09-03T23:51:55.956Z,51301.09
2022-09-03T23:54:36.215Z,51319.00
2022-09-03T23:57:23.078Z,51315.03
